Time;durP1;ratioP1;P1;durP2;ratioP2;P2;SDS_P1;SDS_P2;PMS_P1;PMS_P2;Temp;Humidity;BMP_temperature;BMP_pressure;BME280_temperature;BME280_humidity;BME280_pressure;Samples;Min_cycle;Max_cycle;Signal;HPM_P1;HPM_P2
2021/08/15 00:01:30;;;;;;;;;;;25.70;43.50;;;;;;4335438;33;19974;-38
2021/08/15 00:03:56;;;;;;;;;;;25.60;43.40;;;;;;4352341;32;19958;-38
2021/08/15 00:06:22;;;;;;;;;;;25.60;43.30;;;;;;4326097;33;20054;-39
2021/08/15 00:08:48;;;;;;;;;;;25.70;43.20;;;;;;4311704;33;20419;-38
2021/08/15 00:11:14;;;;;;;;;;;25.70;43.10;;;;;;4311294;33;19962;-38
2021/08/15 00:13:40;;;;;;;;;;;25.80;43.10;;;;;;4311746;33;20067;-39
2021/08/15 00:16:07;;;;;;;;;;;25.80;42.90;;;;;;4311502;33;20084;-39
2021/08/15 00:18:35;;;;;;;;;;;25.80;42.80;;;;;;4311429;33;19974;-39
2021/08/15 00:21:01;;;;;;;;;;;25.80;42.80;;;;;;4311508;33;19963;-38
2021/08/15 00:23:27;;;;;;;;;;;25.70;42.90;;;;;;4311233;33;20383;-38
2021/08/15 00:25:53;;;;;;;;;;;25.80;43.00;;;;;;4300868;33;19989;-39
2021/08/15 00:28:19;;;;;;;;;;;25.70;43.00;;;;;;4314547;33;20407;-37
2021/08/15 00:30:46;;;;;;;;;;;25.70;43.00;;;;;;4314419;33;19970;-38
2021/08/15 00:33:12;;;;;;;;;;;25.70;42.90;;;;;;4314353;33;20030;-38
2021/08/15 00:35:38;;;;;;;;;;;25.80;42.90;;;;;;4314504;33;19986;-37
2021/08/15 00:38:04;;;;;;;;;;;25.80;42.70;;;;;;4337307;33;19981;-38
2021/08/15 00:40:30;;;;;;;;;;;25.80;42.60;;;;;;4357236;32;19961;-38
2021/08/15 00:42:57;;;;;;;;;;;25.80;42.70;;;;;;4343044;33;19974;-37
2021/08/15 00:45:23;;;;;;;;;;;25.80;42.50;;;;;;4344020;33;20564;-38
2021/08/15 00:47:49;;;;;;;;;;;25.80;42.30;;;;;;4343715;33;20008;-38
2021/08/15 00:50:15;;;;;;;;;;;25.80;42.30;;;;;;4343495;33;20067;-39
2021/08/15 00:52:41;;;;;;;;;;;25.70;42.20;;;;;;4343080;33;20075;-38
2021/08/15 00:55:09;;;;;;;;;;;25.80;42.20;;;;;;4343541;33;20363;-38
2021/08/15 00:57:35;;;;;;;;;;;25.80;42.20;;;;;;4343199;33;19974;-37
2021/08/15 01:00:09;;;;;;;;;;;25.70;42.00;;;;;;4343412;33;19954;-39
2021/08/15 01:02:36;;;;;;;;;;;25.70;42.00;;;;;;4355268;32;19970;-39
2021/08/15 01:05:03;;;;;;;;;;;25.70;42.00;;;;;;4357950;32;20422;-38
2021/08/15 01:07:29;;;;;;;;;;;25.70;42.10;;;;;;4358068;32;20413;-38
2021/08/15 01:09:56;;;;;;;;;;;25.70;42.10;;;;;;4358062;32;20060;-38
2021/08/15 01:12:26;;;;;;;;;;;25.60;42.10;;;;;;4358229;32;19950;-37
2021/08/15 01:14:53;;;;;;;;;;;25.70;42.10;;;;;;4373675;32;19962;-37
2021/08/15 01:17:19;;;;;;;;;;;25.60;42.20;;;;;;4375261;32;19953;-39
2021/08/15 01:19:45;;;;;;;;;;;25.60;42.20;;;;;;4374935;32;20011;-38
2021/08/15 01:22:12;;;;;;;;;;;25.60;42.20;;;;;;4375807;32;19970;-39
2021/08/15 01:24:38;;;;;;;;;;;25.60;42.10;;;;;;4375276;32;19977;-39
2021/08/15 01:27:04;;;;;;;;;;;25.60;42.10;;;;;;4375285;32;20433;-38
2021/08/15 01:29:30;;;;;;;;;;;25.60;42.00;;;;;;4349037;32;19969;-38
2021/08/15 01:31:57;;;;;;;;;;;25.60;41.80;;;;;;4361228;32;19973;-38
2021/08/15 01:34:23;;;;;;;;;;;25.70;41.80;;;;;;4361553;32;19995;-38
2021/08/15 01:36:49;;;;;;;;;;;25.80;41.60;;;;;;4374143;32;20384;-38
2021/08/15 01:39:15;;;;;;;;;;;25.80;41.40;;;;;;4375037;32;19985;-38
2021/08/15 01:41:41;;;;;;;;;;;25.90;41.20;;;;;;4374804;32;20376;-37
2021/08/15 01:44:07;;;;;;;;;;;25.90;41.20;;;;;;4375273;32;19957;-38
2021/08/15 01:46:34;;;;;;;;;;;26.00;41.10;;;;;;4375209;32;19961;-38
2021/08/15 01:49:01;;;;;;;;;;;26.00;40.90;;;;;;4360764;32;20372;-39
2021/08/15 01:51:27;;;;;;;;;;;26.10;40.90;;;;;;4374621;32;19969;-38
2021/08/15 01:53:54;;;;;;;;;;;26.10;40.70;;;;;;4375092;32;19950;-37
2021/08/15 01:56:21;;;;;;;;;;;26.30;40.50;;;;;;4374756;32;20413;-37
2021/08/15 01:58:47;;;;;;;;;;;26.30;40.30;;;;;;4374823;32;19958;-38
2021/08/15 02:01:20;;;;;;;;;;;26.30;40.20;;;;;;4371149;32;20432;-38
2021/08/15 02:03:47;;;;;;;;;;;26.40;40.10;;;;;;4359969;32;19973;-38
2021/08/15 02:06:13;;;;;;;;;;;26.40;40.00;;;;;;4345791;32;20466;-38
2021/08/15 02:08:39;;;;;;;;;;;26.50;40.00;;;;;;4359938;32;20086;-37
2021/08/15 02:11:06;;;;;;;;;;;26.50;40.00;;;;;;4359670;32;19967;-38
2021/08/15 02:13:32;;;;;;;;;;;26.50;40.00;;;;;;4345959;32;19968;-42
2021/08/15 02:15:58;;;;;;;;;;;26.50;40.40;;;;;;4359804;32;19954;-37
2021/08/15 02:18:24;;;;;;;;;;;26.50;40.80;;;;;;4359604;32;19957;-38
2021/08/15 02:20:50;;;;;;;;;;;26.40;40.90;;;;;;4359730;32;20049;-38
2021/08/15 02:23:16;;;;;;;;;;;26.30;41.10;;;;;;4359776;32;20111;-38
2021/08/15 02:25:42;;;;;;;;;;;26.30;41.70;;;;;;4359194;32;20345;-38
2021/08/15 02:28:09;;;;;;;;;;;26.30;42.00;;;;;;4359118;32;20390;-37
2021/08/15 02:30:35;;;;;;;;;;;26.20;42.00;;;;;;4359372;32;19957;-38
2021/08/15 02:33:01;;;;;;;;;;;26.20;42.20;;;;;;4359163;32;19973;-38
2021/08/15 02:35:31;;;;;;;;;;;26.10;42.50;;;;;;4345849;32;19980;-39
2021/08/15 02:37:57;;;;;;;;;;;26.10;42.60;;;;;;4359382;32;19965;-39
2021/08/15 02:40:23;;;;;;;;;;;26.10;42.90;;;;;;4345556;32;19966;-37
2021/08/15 02:42:50;;;;;;;;;;;26.20;42.90;;;;;;4359203;32;20494;-38
2021/08/15 02:45:18;;;;;;;;;;;26.20;42.90;;;;;;4359099;32;19969;-38
2021/08/15 02:47:44;;;;;;;;;;;26.30;42.90;;;;;;4359046;32;20054;-37
2021/08/15 02:50:10;;;;;;;;;;;26.30;43.00;;;;;;4359320;32;19958;-38
2021/08/15 02:52:37;;;;;;;;;;;26.30;43.00;;;;;;4344910;32;20062;-38
2021/08/15 02:55:04;;;;;;;;;;;26.30;43.10;;;;;;4359133;32;19954;-38
2021/08/15 02:57:30;;;;;;;;;;;26.30;43.20;;;;;;4359266;32;20000;-38
2021/08/15 02:59:56;;;;;;;;;;;26.30;43.10;;;;;;4359461;32;20491;-37
2021/08/15 03:02:22;;;;;;;;;;;26.30;43.30;;;;;;4358822;32;19985;-42
2021/08/15 03:04:49;;;;;;;;;;;26.30;43.40;;;;;;4359142;32;20477;-38
2021/08/15 03:07:16;;;;;;;;;;;26.30;43.50;;;;;;4358651;32;19988;-37
2021/08/15 03:09:43;;;;;;;;;;;26.30;43.70;;;;;;4358704;32;19969;-38
2021/08/15 03:12:09;;;;;;;;;;;26.30;43.80;;;;;;4359056;32;19950;-38
2021/08/15 03:14:38;;;;;;;;;;;26.20;43.90;;;;;;4361732;32;19965;-38
2021/08/15 03:17:05;;;;;;;;;;;26.10;44.10;;;;;;4373769;32;20058;-38
2021/08/15 03:19:31;;;;;;;;;;;26.10;44.20;;;;;;4374102;32;20069;-37
2021/08/15 03:21:57;;;;;;;;;;;26.10;44.20;;;;;;4373554;32;19950;-38
2021/08/15 03:24:23;;;;;;;;;;;26.10;44.10;;;;;;4373601;32;20518;-38
2021/08/15 03:26:50;;;;;;;;;;;26.20;44.20;;;;;;4373781;32;19977;-38
2021/08/15 03:29:16;;;;;;;;;;;26.20;44.00;;;;;;4359909;32;20044;-38
2021/08/15 03:31:44;;;;;;;;;;;26.30;43.90;;;;;;4359602;32;19965;-38
2021/08/15 03:34:11;;;;;;;;;;;26.40;44.30;;;;;;4373508;32;20421;-38
2021/08/15 03:36:37;;;;;;;;;;;26.40;45.70;;;;;;4373102;32;20362;-37
2021/08/15 03:39:04;;;;;;;;;;;26.30;46.40;;;;;;4373176;32;20054;-37
2021/08/15 03:41:30;;;;;;;;;;;26.10;47.10;;;;;;4373710;32;20130;-37
2021/08/15 03:43:56;;;;;;;;;;;26.00;47.90;;;;;;4360041;32;19970;-37
2021/08/15 03:46:22;;;;;;;;;;;25.80;48.20;;;;;;4373484;32;20038;-37
2021/08/15 03:48:49;;;;;;;;;;;25.60;48.90;;;;;;4373482;32;20054;-38
2021/08/15 03:51:15;;;;;;;;;;;25.50;49.00;;;;;;4373341;32;20054;-38
2021/08/15 03:53:41;;;;;;;;;;;25.40;49.10;;;;;;4359386;32;19977;-38
2021/08/15 03:56:07;;;;;;;;;;;25.30;50.00;;;;;;4373632;32;19958;-37
2021/08/15 03:58:33;;;;;;;;;;;25.30;50.50;;;;;;4373448;32;20029;-38
2021/08/15 04:00:59;;;;;;;;;;;25.30;50.70;;;;;;4372841;32;19945;-38
2021/08/15 04:03:26;;;;;;;;;;;25.30;50.70;;;;;;4361576;32;20025;-38
2021/08/15 04:05:55;;;;;;;;;;;25.20;51.00;;;;;;4361518;32;20381;-38
2021/08/15 04:08:22;;;;;;;;;;;25.20;51.00;;;;;;4361631;32;19954;-38
2021/08/15 04:10:48;;;;;;;;;;;25.30;51.50;;;;;;4314382;33;19963;-38
2021/08/15 04:13:15;;;;;;;;;;;25.30;51.80;;;;;;4314732;33;19971;-38
2021/08/15 04:15:41;;;;;;;;;;;25.30;51.90;;;;;;4312667;33;20420;-38
2021/08/15 04:18:07;;;;;;;;;;;25.20;52.40;;;;;;4314651;33;20450;-37
2021/08/15 04:20:33;;;;;;;;;;;25.20;52.70;;;;;;4314607;33;19963;-38
2021/08/15 04:22:59;;;;;;;;;;;25.20;51.90;;;;;;4314616;33;20009;-38
2021/08/15 04:25:26;;;;;;;;;;;25.20;52.40;;;;;;4314240;33;20146;-37
2021/08/15 04:27:52;;;;;;;;;;;25.30;53.40;;;;;;4313981;33;20455;-38
2021/08/15 04:30:18;;;;;;;;;;;25.30;52.70;;;;;;4314246;33;19959;-38
2021/08/15 04:32:44;;;;;;;;;;;25.40;52.30;;;;;;4302071;33;19979;-39
2021/08/15 04:35:10;;;;;;;;;;;25.40;52.10;;;;;;4314145;33;20047;-39
2021/08/15 04:37:36;;;;;;;;;;;25.40;51.70;;;;;;4313761;33;20516;-40
2021/08/15 04:40:04;;;;;;;;;;;25.60;52.00;;;;;;4313925;33;20017;-40
2021/08/15 04:42:31;;;;;;;;;;;25.70;51.30;;;;;;4314243;33;20102;-39
2021/08/15 04:44:57;;;;;;;;;;;25.70;50.30;;;;;;4314276;33;20002;-39
2021/08/15 04:47:23;;;;;;;;;;;25.80;50.50;;;;;;4318022;33;20062;-39
2021/08/15 04:49:49;;;;;;;;;;;25.90;50.60;;;;;;4332446;33;19973;-39
2021/08/15 04:52:15;;;;;;;;;;;26.00;49.90;;;;;;4320165;33;20009;-39
2021/08/15 04:54:41;;;;;;;;;;;26.10;49.10;;;;;;4331878;33;20079;-40
2021/08/15 04:57:08;;;;;;;;;;;26.20;49.10;;;;;;4345818;33;19960;-38
2021/08/15 04:59:34;;;;;;;;;;;26.20;49.30;;;;;;4345860;33;19972;-39
2021/08/15 05:02:03;;;;;;;;;;;26.30;48.30;;;;;;4353859;32;19969;-39
2021/08/15 05:04:29;;;;;;;;;;;26.30;48.50;;;;;;4360484;32;19988;-43
2021/08/15 05:06:56;;;;;;;;;;;26.30;48.70;;;;;;4360647;32;19961;-39
2021/08/15 05:09:22;;;;;;;;;;;26.20;49.00;;;;;;4360579;32;19994;-39
2021/08/15 05:11:48;;;;;;;;;;;26.10;49.30;;;;;;4360330;32;19961;-40
2021/08/15 05:14:15;;;;;;;;;;;26.10;49.20;;;;;;4360455;32;19954;-38
2021/08/15 05:16:41;;;;;;;;;;;26.20;49.10;;;;;;4373319;32;20018;-39
2021/08/15 05:19:07;;;;;;;;;;;26.40;48.90;;;;;;4375303;32;19973;-39
2021/08/15 05:21:33;;;;;;;;;;;26.60;48.70;;;;;;4375629;32;19965;-40
2021/08/15 05:23:59;;;;;;;;;;;26.80;48.60;;;;;;4375099;32;19992;-40
2021/08/15 05:26:26;;;;;;;;;;;27.00;48.00;;;;;;4375270;32;19960;-39
2021/08/15 05:28:52;;;;;;;;;;;27.20;47.90;;;;;;4375050;32;19984;-39
2021/08/15 05:31:18;;;;;;;;;;;27.30;47.70;;;;;;4375232;32;19969;-39
2021/08/15 05:33:45;;;;;;;;;;;27.50;47.70;;;;;;4375361;32;19996;-40
2021/08/15 05:36:11;;;;;;;;;;;27.60;46.70;;;;;;4375511;32;20044;-40
2021/08/15 05:38:37;;;;;;;;;;;27.70;46.10;;;;;;4375221;32;19977;-41
2021/08/15 05:41:03;;;;;;;;;;;27.80;45.90;;;;;;4374692;32;20443;-40
2021/08/15 05:43:29;;;;;;;;;;;28.00;45.80;;;;;;4361047;32;20029;-39
2021/08/15 05:45:56;;;;;;;;;;;28.10;45.60;;;;;;4374689;32;19949;-38
2021/08/15 05:48:22;;;;;;;;;;;28.20;45.30;;;;;;4374604;32;20413;-39
2021/08/15 05:50:48;;;;;;;;;;;28.30;45.20;;;;;;4374765;32;19961;-39
2021/08/15 05:53:14;;;;;;;;;;;28.40;44.30;;;;;;4374768;32;19957;-39
2021/08/15 05:55:40;;;;;;;;;;;28.60;44.20;;;;;;4375043;32;19964;-39
2021/08/15 05:58:06;;;;;;;;;;;28.80;43.80;;;;;;4374429;32;20003;-39
2021/08/15 06:00:33;;;;;;;;;;;29.00;43.40;;;;;;4374588;32;20394;-39
2021/08/15 06:02:59;;;;;;;;;;;29.10;42.40;;;;;;4360254;32;19984;-39
2021/08/15 06:05:25;;;;;;;;;;;29.40;42.50;;;;;;4359807;32;19954;-39
2021/08/15 06:07:51;;;;;;;;;;;29.50;42.10;;;;;;4359832;32;19958;-39
2021/08/15 06:10:18;;;;;;;;;;;29.70;41.90;;;;;;4359887;32;19978;-39
2021/08/15 06:12:44;;;;;;;;;;;29.90;41.10;;;;;;4359226;32;19962;-38
2021/08/15 06:15:14;;;;;;;;;;;30.10;41.00;;;;;;4359546;32;19962;-39
2021/08/15 06:17:41;;;;;;;;;;;30.30;40.90;;;;;;4359980;32;20071;-38
2021/08/15 06:20:08;;;;;;;;;;;30.40;40.40;;;;;;4359940;32;19961;-38
2021/08/15 06:22:42;;;;;;;;;;;30.60;40.50;;;;;;4359216;32;20016;-37
2021/08/15 06:25:08;;;;;;;;;;;30.80;40.50;;;;;;4359247;32;19957;-38
2021/08/15 06:27:35;;;;;;;;;;;31.00;39.30;;;;;;4359255;32;20171;-38
2021/08/15 06:30:01;;;;;;;;;;;31.20;39.50;;;;;;4359596;32;19977;-38
2021/08/15 06:32:27;;;;;;;;;;;31.30;38.70;;;;;;4359251;32;19960;-37
2021/08/15 06:34:54;;;;;;;;;;;31.50;38.80;;;;;;4359448;32;19958;-38
2021/08/15 06:37:20;;;;;;;;;;;31.70;37.90;;;;;;4359167;32;19966;-38
2021/08/15 06:39:46;;;;;;;;;;;31.70;37.00;;;;;;4359149;32;19953;-38
2021/08/15 06:42:12;;;;;;;;;;;31.80;37.20;;;;;;4358900;32;20410;-37
2021/08/15 06:44:38;;;;;;;;;;;31.90;37.10;;;;;;4358645;32;19957;-38
2021/08/15 06:47:05;;;;;;;;;;;32.00;37.00;;;;;;4357243;32;20454;-37
2021/08/15 06:49:31;;;;;;;;;;;32.20;37.00;;;;;;4358707;32;20365;-37
2021/08/15 06:51:57;;;;;;;;;;;32.50;37.40;;;;;;4359284;32;20034;-37
2021/08/15 06:54:24;;;;;;;;;;;32.80;36.90;;;;;;4358977;32;19964;-37
2021/08/15 06:56:50;;;;;;;;;;;33.10;36.30;;;;;;4359040;32;19958;-38
2021/08/15 06:59:16;;;;;;;;;;;33.30;36.30;;;;;;4358812;32;20032;-37
2021/08/15 07:01:43;;;;;;;;;;;33.50;36.00;;;;;;4359009;32;20400;-38
2021/08/15 07:04:09;;;;;;;;;;;33.90;35.90;;;;;;4358854;32;19950;-37
2021/08/15 07:06:35;;;;;;;;;;;34.00;34.50;;;;;;4358866;32;20452;-39
2021/08/15 07:09:01;;;;;;;;;;;34.20;34.50;;;;;;4358500;32;19962;-38
2021/08/15 07:11:27;;;;;;;;;;;34.20;34.20;;;;;;4358604;32;19960;-38
2021/08/15 07:13:54;;;;;;;;;;;34.10;34.00;;;;;;4357071;32;20167;-37
2021/08/15 07:16:20;;;;;;;;;;;34.10;33.90;;;;;;4369511;32;19956;-38
2021/08/15 07:18:46;;;;;;;;;;;34.10;33.90;;;;;;4373224;32;19969;-38
2021/08/15 07:21:12;;;;;;;;;;;34.00;33.80;;;;;;4373588;32;19976;-37
2021/08/15 07:23:38;;;;;;;;;;;33.90;33.70;;;;;;4373533;32;19954;-37
2021/08/15 07:26:04;;;;;;;;;;;33.80;33.90;;;;;;4373422;32;19996;-38
2021/08/15 07:28:31;;;;;;;;;;;33.70;34.00;;;;;;4373644;32;20421;-38
2021/08/15 07:30:57;;;;;;;;;;;33.70;34.40;;;;;;4359626;32;19969;-37
2021/08/15 07:33:23;;;;;;;;;;;33.70;34.50;;;;;;4373286;32;19953;-38
2021/08/15 07:35:49;;;;;;;;;;;33.70;34.40;;;;;;4373247;32;19980;-37
2021/08/15 07:38:16;;;;;;;;;;;33.70;34.40;;;;;;4373531;32;19950;-38
2021/08/15 07:40:42;;;;;;;;;;;33.70;34.20;;;;;;4373328;32;20037;-38
2021/08/15 07:43:08;;;;;;;;;;;33.60;33.80;;;;;;4373476;32;19982;-38
2021/08/15 07:45:34;;;;;;;;;;;33.60;34.00;;;;;;4372882;32;19970;-38
2021/08/15 07:48:01;;;;;;;;;;;33.60;33.90;;;;;;4373382;32;19961;-38
2021/08/15 07:50:29;;;;;;;;;;;33.60;34.00;;;;;;4373510;32;19957;-38
2021/08/15 07:52:55;;;;;;;;;;;33.60;33.90;;;;;;4373126;32;19980;-39
2021/08/15 07:55:22;;;;;;;;;;;33.60;33.90;;;;;;4373402;32;19954;-38
2021/08/15 07:57:48;;;;;;;;;;;33.60;34.00;;;;;;4372939;32;19961;-38
2021/08/15 08:00:14;;;;;;;;;;;33.50;33.80;;;;;;4373476;32;20377;-38
2021/08/15 08:02:40;;;;;;;;;;;33.50;33.90;;;;;;4360635;32;19973;-38
2021/08/15 08:05:07;;;;;;;;;;;33.60;34.20;;;;;;4344558;32;19988;-37
2021/08/15 08:07:33;;;;;;;;;;;33.60;34.00;;;;;;4358258;32;19961;-37
2021/08/15 08:10:00;;;;;;;;;;;33.70;33.70;;;;;;4357990;32;20004;-37
2021/08/15 08:12:26;;;;;;;;;;;33.80;33.80;;;;;;4357898;32;20369;-38
2021/08/15 08:14:52;;;;;;;;;;;33.90;33.60;;;;;;4357967;32;19969;-37
2021/08/15 08:17:18;;;;;;;;;;;34.00;33.90;;;;;;4358203;32;19953;-38
2021/08/15 08:19:45;;;;;;;;;;;34.20;33.60;;;;;;4344910;32;20401;-38
2021/08/15 08:22:11;;;;;;;;;;;34.30;33.70;;;;;;4343978;32;20339;-38
2021/08/15 08:24:37;;;;;;;;;;;34.60;32.70;;;;;;4357972;32;20043;-38
2021/08/15 08:27:04;;;;;;;;;;;34.80;32.50;;;;;;4357722;32;19966;-37
2021/08/15 08:29:30;;;;;;;;;;;34.90;32.50;;;;;;4358009;32;20142;-38
2021/08/15 08:31:56;;;;;;;;;;;35.00;32.80;;;;;;4357913;32;19957;-38
2021/08/15 08:34:22;;;;;;;;;;;35.30;32.60;;;;;;4344472;32;19980;-37
2021/08/15 08:36:49;;;;;;;;;;;35.50;32.30;;;;;;4358067;32;19967;-38
2021/08/15 08:39:15;;;;;;;;;;;35.80;31.10;;;;;;4357909;32;19965;-39
2021/08/15 08:41:41;;;;;;;;;;;36.10;30.90;;;;;;4357624;32;20077;-38
2021/08/15 08:44:07;;;;;;;;;;;36.30;31.90;;;;;;4357881;32;19954;-39
2021/08/15 08:46:34;;;;;;;;;;;36.60;30.60;;;;;;4345148;32;20026;-38
2021/08/15 08:49:00;;;;;;;;;;;37.10;30.00;;;;;;4360831;32;20041;-38
2021/08/15 08:51:26;;;;;;;;;;;37.50;30.10;;;;;;4346784;32;19976;-38
2021/08/15 08:53:53;;;;;;;;;;;38.00;29.90;;;;;;4360814;32;19974;-39
2021/08/15 08:56:22;;;;;;;;;;;38.20;29.30;;;;;;4361134;32;19958;-38
2021/08/15 08:58:51;;;;;;;;;;;38.40;28.90;;;;;;4361006;32;19965;-39
2021/08/15 09:01:17;;;;;;;;;;;38.50;28.40;;;;;;4360761;32;19957;-38
2021/08/15 09:03:44;;;;;;;;;;;38.60;28.50;;;;;;4360348;32;19985;-38
2021/08/15 09:06:26;;;;;;;;;;;38.70;28.90;;;;;;4360443;32;20378;-39
2021/08/15 09:08:52;;;;;;;;;;;38.80;28.80;;;;;;4358805;32;19958;-39
2021/08/15 09:11:21;;;;;;;;;;;38.80;29.10;;;;;;4360591;32;19983;-39
2021/08/15 09:14:00;;;;;;;;;;;38.80;29.50;;;;;;4360591;32;19953;-38
2021/08/15 09:16:26;;;;;;;;;;;38.90;29.70;;;;;;4371483;32;20427;-38
2021/08/15 09:18:52;;;;;;;;;;;39.00;29.70;;;;;;4361295;32;20373;-39
2021/08/15 09:21:31;;;;;;;;;;;38.90;29.70;;;;;;4375476;32;19965;-38
2021/08/15 09:24:00;;;;;;;;;;;38.90;29.80;;;;;;4374718;32;19965;-38
2021/08/15 09:26:27;;;;;;;;;;;39.00;30.00;;;;;;4374929;32;19980;-38
2021/08/15 09:28:53;;;;;;;;;;;39.20;29.90;;;;;;4375508;32;20037;-38
2021/08/15 09:31:28;;;;;;;;;;;39.40;29.80;;;;;;4375656;32;19966;-39
2021/08/15 09:33:56;;;;;;;;;;;39.60;29.70;;;;;;4374748;32;19958;-39
2021/08/15 09:36:31;;;;;;;;;;;39.80;29.70;;;;;;4375363;32;20030;-38
2021/08/15 09:39:00;;;;;;;;;;;39.90;29.60;;;;;;4375326;32;19954;-39
2021/08/15 09:41:27;;;;;;;;;;;39.90;29.50;;;;;;4374866;32;19960;-39
2021/08/15 09:44:23;;;;;;;;;;;40.00;29.30;;;;;;4375007;32;20365;-39
2021/08/15 09:47:09;;;;;;;;;;;40.10;28.80;;;;;;4374857;32;19966;-39
2021/08/15 09:49:35;;;;;;;;;;;40.30;28.50;;;;;;4375079;32;19960;-39
2021/08/15 09:52:02;;;;;;;;;;;40.50;28.40;;;;;;4374976;32;19953;-39
2021/08/15 09:54:28;;;;;;;;;;;40.70;28.30;;;;;;4374665;32;19969;-39
2021/08/15 09:56:56;;;;;;;;;;;40.90;28.20;;;;;;4374958;32;20462;-39
2021/08/15 09:59:24;;;;;;;;;;;41.10;28.10;;;;;;4374250;32;19953;-39
2021/08/15 10:01:52;;;;;;;;;;;41.30;27.60;;;;;;4341029;32;19962;-39
2021/08/15 10:04:18;;;;;;;;;;;41.40;27.60;;;;;;4359519;32;20037;-38
2021/08/15 10:06:46;;;;;;;;;;;41.50;27.40;;;;;;4360011;32;19985;-38
2021/08/15 10:09:13;;;;;;;;;;;41.60;27.10;;;;;;4359632;32;19970;-39
2021/08/15 10:11:39;;;;;;;;;;;41.60;26.70;;;;;;4359542;32;19957;-39
2021/08/15 10:14:07;;;;;;;;;;;41.60;26.80;;;;;;4359341;32;20463;-39
2021/08/15 10:16:38;;;;;;;;;;;41.60;26.80;;;;;;4359328;32;19961;-39
2021/08/15 10:19:10;;;;;;;;;;;41.80;26.80;;;;;;4359288;32;20472;-39
2021/08/15 10:21:45;;;;;;;;;;;41.70;26.00;;;;;;4359616;32;20100;-39
2021/08/15 10:24:12;;;;;;;;;;;41.60;26.20;;;;;;4359587;32;19973;-38
2021/08/15 10:26:40;;;;;;;;;;;41.50;26.50;;;;;;4359502;32;20061;-39
2021/08/15 10:29:33;;;;;;;;;;;41.50;26.50;;;;;;4359304;32;20008;-38
2021/08/15 10:32:06;;;;;;;;;;;41.70;26.60;;;;;;4358843;32;19966;-38
2021/08/15 10:34:51;;;;;;;;;;;42.00;26.40;;;;;;4358866;32;20435;-38
2021/08/15 10:37:32;;;;;;;;;;;42.20;26.20;;;;;;4359124;32;19990;-39
2021/08/15 10:40:03;;;;;;;;;;;42.40;25.90;;;;;;4359194;32;19980;-38
2021/08/15 10:42:38;;;;;;;;;;;42.70;25.80;;;;;;4345533;32;19954;-39
2021/08/15 10:45:15;;;;;;;;;;;42.90;25.20;;;;;;4359299;32;20465;-39
2021/08/15 10:47:41;;;;;;;;;;;43.20;25.20;;;;;;4359062;32;19985;-40
2021/08/15 10:50:08;;;;;;;;;;;43.30;25.20;;;;;;4344682;32;19954;-39
2021/08/15 10:52:39;;;;;;;;;;;43.50;25.10;;;;;;4358826;32;19957;-38
2021/08/15 10:55:12;;;;;;;;;;;43.60;25.00;;;;;;4358905;32;19962;-38
2021/08/15 10:57:46;;;;;;;;;;;43.70;24.80;;;;;;4358683;32;19988;-38
2021/08/15 11:00:34;;;;;;;;;;;43.80;24.70;;;;;;4345517;32;19951;-39
2021/08/15 11:03:22;;;;;;;;;;;43.90;24.10;;;;;;4359014;32;19954;-38
2021/08/15 11:05:49;;;;;;;;;;;44.00;23.90;;;;;;4358831;32;19989;-40
2021/08/15 11:08:34;;;;;;;;;;;44.20;23.70;;;;;;4358847;32;20473;-40
2021/08/15 11:11:10;;;;;;;;;;;44.20;23.70;;;;;;4358921;32;19962;-39
2021/08/15 11:13:37;;;;;;;;;;;44.20;23.50;;;;;;4358995;32;19961;-39
2021/08/15 11:16:25;;;;;;;;;;;44.20;23.20;;;;;;4357422;32;19998;-38
2021/08/15 11:19:10;;;;;;;;;;;44.30;23.20;;;;;;4358400;32;19969;-39
2021/08/15 11:22:14;;;;;;;;;;;44.20;22.60;;;;;;4358840;32;19961;-39
2021/08/15 11:24:43;;;;;;;;;;;44.20;22.60;;;;;;4358260;32;19961;-38
2021/08/15 11:27:10;;;;;;;;;;;44.00;22.50;;;;;;4358467;32;19949;-39
2021/08/15 11:29:37;;;;;;;;;;;43.70;22.70;;;;;;4358429;32;19961;-38
2021/08/15 11:32:03;;;;;;;;;;;43.50;22.70;;;;;;4358463;32;19970;-38
2021/08/15 11:34:30;;;;;;;;;;;43.60;23.00;;;;;;4358773;32;19973;-38
2021/08/15 11:36:57;;;;;;;;;;;43.60;23.00;;;;;;4358939;32;20408;-38
2021/08/15 11:39:36;;;;;;;;;;;43.50;23.00;;;;;;4357983;32;20423;-39
2021/08/15 11:42:15;;;;;;;;;;;43.60;23.00;;;;;;4358209;32;20438;-38
2021/08/15 11:44:50;;;;;;;;;;;43.80;23.20;;;;;;4358522;32;20424;-38
2021/08/15 11:47:21;;;;;;;;;;;43.70;23.20;;;;;;4358431;32;19985;-38
2021/08/15 11:49:47;;;;;;;;;;;43.60;23.30;;;;;;4356769;32;19972;-39
2021/08/15 11:52:15;;;;;;;;;;;43.70;23.40;;;;;;4358274;32;19960;-39
2021/08/15 11:54:42;;;;;;;;;;;43.70;23.40;;;;;;4358617;32;19965;-38
2021/08/15 11:57:11;;;;;;;;;;;43.70;23.40;;;;;;4358227;32;19988;-39
2021/08/15 12:00:04;;;;;;;;;;;43.60;23.40;;;;;;4357987;32;20046;-39
2021/08/15 12:02:30;;;;;;;;;;;43.50;23.40;;;;;;4354203;32;20361;-40
2021/08/15 12:04:56;;;;;;;;;;;43.40;23.50;;;;;;4358247;32;19954;-39
2021/08/15 12:07:26;;;;;;;;;;;43.30;23.70;;;;;;4358481;32;19993;-38
2021/08/15 12:10:24;;;;;;;;;;;43.10;23.80;;;;;;4358207;32;19986;-39
2021/08/15 12:13:13;;;;;;;;;;;42.80;23.90;;;;;;4358098;32;19997;-39
2021/08/15 12:15:41;;;;;;;;;;;42.70;24.20;;;;;;4357947;32;19970;-38
2021/08/15 12:18:07;;;;;;;;;;;42.60;24.50;;;;;;4358246;32;19970;-38
2021/08/15 12:20:43;;;;;;;;;;;42.60;24.50;;;;;;4357918;32;19969;-39
2021/08/15 12:23:10;;;;;;;;;;;42.70;24.40;;;;;;4361013;32;19950;-40
2021/08/15 12:25:36;;;;;;;;;;;42.80;24.20;;;;;;4361201;32;20112;-38
2021/08/15 12:28:12;;;;;;;;;;;42.90;24.10;;;;;;4361206;32;19981;-38
2021/08/15 12:30:38;;;;;;;;;;;43.00;24.10;;;;;;4361105;32;19965;-39
2021/08/15 12:33:24;;;;;;;;;;;43.10;23.90;;;;;;4346721;32;20378;-38
2021/08/15 12:35:50;;;;;;;;;;;43.20;23.70;;;;;;4360769;32;20419;-39
2021/08/15 12:38:29;;;;;;;;;;;43.20;23.80;;;;;;4360577;32;19965;-38
2021/08/15 12:41:15;;;;;;;;;;;43.20;23.80;;;;;;4360836;32;19973;-39
2021/08/15 12:43:41;;;;;;;;;;;43.30;23.90;;;;;;4360392;32;19945;-39
2021/08/15 12:46:24;;;;;;;;;;;43.40;23.80;;;;;;4360901;32;19961;-38
2021/08/15 12:48:50;;;;;;;;;;;43.50;23.60;;;;;;4347193;32;20455;-39
2021/08/15 12:51:20;;;;;;;;;;;43.70;23.20;;;;;;4360541;32;20421;-39
2021/08/15 12:53:46;;;;;;;;;;;44.00;23.10;;;;;;4360532;32;20424;-39
2021/08/15 12:56:15;;;;;;;;;;;44.10;23.00;;;;;;4346991;32;20122;-39
2021/08/15 12:58:42;;;;;;;;;;;44.30;23.00;;;;;;4360627;32;19961;-39
2021/08/15 13:01:08;;;;;;;;;;;44.40;22.80;;;;;;4360591;32;20397;-40
2021/08/15 13:03:34;;;;;;;;;;;44.50;22.80;;;;;;4359023;32;20004;-39
2021/08/15 13:06:02;;;;;;;;;;;44.40;22.60;;;;;;4360567;32;19966;-39
2021/08/15 13:08:28;;;;;;;;;;;44.30;22.60;;;;;;4360406;32;19960;-40
2021/08/15 13:10:55;;;;;;;;;;;44.20;22.70;;;;;;4370871;32;20038;-39
2021/08/15 13:13:22;;;;;;;;;;;44.20;22.90;;;;;;4360190;32;20402;-39
2021/08/15 13:15:48;;;;;;;;;;;44.20;22.90;;;;;;4367359;32;20078;-39
2021/08/15 13:18:15;;;;;;;;;;;44.20;22.60;;;;;;4375029;32;19976;-39
2021/08/15 13:20:41;;;;;;;;;;;44.20;22.50;;;;;;4375096;32;19987;-39
2021/08/15 13:23:08;;;;;;;;;;;44.10;22.50;;;;;;4375108;32;20074;-38
2021/08/15 13:25:34;;;;;;;;;;;44.10;22.50;;;;;;4328138;33;20018;-40
2021/08/15 13:28:02;;;;;;;;;;;44.00;22.20;;;;;;4327857;33;20373;-39
2021/08/15 13:30:28;;;;;;;;;;;43.90;22.20;;;;;;4327984;33;19965;-39
2021/08/15 13:33:00;;;;;;;;;;;43.90;22.10;;;;;;4327831;33;20418;-39
2021/08/15 13:35:27;;;;;;;;;;;43.90;21.90;;;;;;4340131;33;20406;-39
2021/08/15 13:37:53;;;;;;;;;;;44.00;21.80;;;;;;4327840;33;20394;-38
2021/08/15 13:40:19;;;;;;;;;;;44.00;21.80;;;;;;4328077;33;19986;-39
2021/08/15 13:42:45;;;;;;;;;;;44.10;21.70;;;;;;4328126;33;19962;-38
2021/08/15 13:45:12;;;;;;;;;;;44.00;21.60;;;;;;4328103;33;20508;-39
2021/08/15 13:47:40;;;;;;;;;;;44.00;21.50;;;;;;4327647;33;20473;-39
2021/08/15 13:50:08;;;;;;;;;;;44.00;21.40;;;;;;4328240;33;20028;-39
2021/08/15 13:52:34;;;;;;;;;;;43.90;21.40;;;;;;4327892;33;20088;-41
2021/08/15 13:55:00;;;;;;;;;;;44.00;21.40;;;;;;4327805;33;20029;-38
2021/08/15 13:57:26;;;;;;;;;;;44.00;21.40;;;;;;4328083;33;20009;-39
2021/08/15 13:59:53;;;;;;;;;;;44.00;21.30;;;;;;4327935;33;19974;-39
2021/08/15 14:02:20;;;;;;;;;;;44.10;21.40;;;;;;4333979;32;19958;-39
2021/08/15 14:04:48;;;;;;;;;;;44.10;21.40;;;;;;4359704;32;20046;-39
2021/08/15 14:07:14;;;;;;;;;;;44.10;21.20;;;;;;4359588;32;20515;-40
2021/08/15 14:09:40;;;;;;;;;;;44.10;21.30;;;;;;4359667;32;19951;-39
2021/08/15 14:12:07;;;;;;;;;;;44.10;21.20;;;;;;4359825;32;19970;-39
2021/08/15 14:14:33;;;;;;;;;;;44.20;21.00;;;;;;4359231;32;20459;-40
2021/08/15 14:16:59;;;;;;;;;;;44.20;21.00;;;;;;4359139;32;20485;-40
2021/08/15 14:19:25;;;;;;;;;;;44.20;20.80;;;;;;4359528;32;19957;-40
2021/08/15 14:21:51;;;;;;;;;;;44.20;20.80;;;;;;4359438;32;20409;-40